sensor_id;sensor_type;location;lat;lon;timestamp;P1;durP1;ratioP1;P2;durP2;ratioP2
57461;SDS011;43308;47.306;8.608;2023-12-14T00:01:27;0.35;;;0.25;;
57461;SDS011;43308;47.306;8.608;2023-12-14T00:03:53;0.10;;;0.10;;
57461;SDS011;43308;47.306;8.608;2023-12-14T00:06:20;0.77;;;0.30;;
57461;SDS011;43308;47.306;8.608;2023-12-14T00:08:45;0.28;;;0.28;;
57461;SDS011;43308;47.306;8.608;2023-12-14T00:11:11;0.20;;;0.10;;
57461;SDS011;43308;47.306;8.608;2023-12-14T00:13:37;0.10;;;0.10;;
57461;SDS011;43308;47.306;8.608;2023-12-14T00:16:04;0.30;;;0.30;;
57461;SDS011;43308;47.306;8.608;2023-12-14T00:18:30;0.40;;;0.30;;
57461;SDS011;43308;47.306;8.608;2023-12-14T00:20:56;0.20;;;0.20;;
57461;SDS011;43308;47.306;8.608;2023-12-14T00:23:22;0.70;;;0.70;;
57461;SDS011;43308;47.306;8.608;2023-12-14T00:25:49;0.52;;;0.30;;
57461;SDS011;43308;47.306;8.608;2023-12-14T00:28:15;0.30;;;0.30;;
57461;SDS011;43308;47.306;8.608;2023-12-14T00:30:41;0.80;;;0.40;;
57461;SDS011;43308;47.306;8.608;2023-12-14T00:33:08;0.60;;;0.38;;
57461;SDS011;43308;47.306;8.608;2023-12-14T00:35:34;0.50;;;0.45;;
57461;SDS011;43308;47.306;8.608;2023-12-14T00:38:00;0.50;;;0.40;;
57461;SDS011;43308;47.306;8.608;2023-12-14T00:40:26;0.43;;;0.40;;
57461;SDS011;43308;47.306;8.608;2023-12-14T00:42:52;1.60;;;0.70;;
57461;SDS011;43308;47.306;8.608;2023-12-14T00:45:18;0.73;;;0.70;;
57461;SDS011;43308;47.306;8.608;2023-12-14T00:47:45;1.08;;;0.98;;
57461;SDS011;43308;47.306;8.608;2023-12-14T00:50:11;1.23;;;0.63;;
57461;SDS011;43308;47.306;8.608;2023-12-14T00:52:36;1.02;;;0.93;;
57461;SDS011;43308;47.306;8.608;2023-12-14T00:55:02;1.10;;;1.00;;
57461;SDS011;43308;47.306;8.608;2023-12-14T00:57:28;0.93;;;0.80;;
57461;SDS011;43308;47.306;8.608;2023-12-14T00:59:54;1.20;;;0.68;;
57461;SDS011;43308;47.306;8.608;2023-12-14T01:02:20;0.93;;;0.73;;
57461;SDS011;43308;47.306;8.608;2023-12-14T01:04:46;0.77;;;0.77;;
57461;SDS011;43308;47.306;8.608;2023-12-14T01:07:11;0.88;;;0.73;;
57461;SDS011;43308;47.306;8.608;2023-12-14T01:09:39;0.77;;;0.77;;
57461;SDS011;43308;47.306;8.608;2023-12-14T01:12:05;0.75;;;0.75;;
57461;SDS011;43308;47.306;8.608;2023-12-14T01:14:31;1.00;;;0.90;;
57461;SDS011;43308;47.306;8.608;2023-12-14T01:16:58;0.77;;;0.70;;
57461;SDS011;43308;47.306;8.608;2023-12-14T01:19:25;1.00;;;0.80;;
57461;SDS011;43308;47.306;8.608;2023-12-14T01:21:51;1.00;;;0.88;;
57461;SDS011;43308;47.306;8.608;2023-12-14T01:24:18;1.23;;;0.63;;
57461;SDS011;43308;47.306;8.608;2023-12-14T01:26:44;1.95;;;1.02;;
57461;SDS011;43308;47.306;8.608;2023-12-14T01:29:10;0.77;;;0.77;;
57461;SDS011;43308;47.306;8.608;2023-12-14T01:31:36;1.05;;;0.90;;
57461;SDS011;43308;47.306;8.608;2023-12-14T01:34:02;1.90;;;0.68;;
57461;SDS011;43308;47.306;8.608;2023-12-14T01:36:28;0.60;;;0.60;;
57461;SDS011;43308;47.306;8.608;2023-12-14T01:38:54;0.30;;;0.30;;
57461;SDS011;43308;47.306;8.608;2023-12-14T01:41:20;0.40;;;0.35;;
57461;SDS011;43308;47.306;8.608;2023-12-14T01:43:46;0.50;;;0.20;;
57461;SDS011;43308;47.306;8.608;2023-12-14T01:46:13;0.50;;;0.10;;
57461;SDS011;43308;47.306;8.608;2023-12-14T01:48:41;0.00;;;0.00;;
57461;SDS011;43308;47.306;8.608;2023-12-14T01:51:06;0.15;;;0.10;;
57461;SDS011;43308;47.306;8.608;2023-12-14T01:53:32;0.35;;;0.10;;
57461;SDS011;43308;47.306;8.608;2023-12-14T01:55:58;0.13;;;0.13;;
57461;SDS011;43308;47.306;8.608;2023-12-14T01:58:24;0.63;;;0.30;;
57461;SDS011;43308;47.306;8.608;2023-12-14T02:03:30;0.08;;;0.08;;
57461;SDS011;43308;47.306;8.608;2023-12-14T02:05:56;0.10;;;0.10;;
57461;SDS011;43308;47.306;8.608;2023-12-14T02:08:24;0.98;;;0.00;;
57461;SDS011;43308;47.306;8.608;2023-12-14T02:10:50;1.45;;;0.00;;
57461;SDS011;43308;47.306;8.608;2023-12-14T02:13:16;0.63;;;0.10;;
57461;SDS011;43308;47.306;8.608;2023-12-14T02:15:42;0.30;;;0.10;;
57461;SDS011;43308;47.306;8.608;2023-12-14T02:18:08;0.20;;;0.10;;
57461;SDS011;43308;47.306;8.608;2023-12-14T02:20:33;0.08;;;0.08;;
57461;SDS011;43308;47.306;8.608;2023-12-14T02:22:59;2.28;;;0.10;;
57461;SDS011;43308;47.306;8.608;2023-12-14T02:25:27;0.00;;;0.00;;
57461;SDS011;43308;47.306;8.608;2023-12-14T02:27:53;0.10;;;0.10;;
57461;SDS011;43308;47.306;8.608;2023-12-14T02:30:18;0.10;;;0.10;;
57461;SDS011;43308;47.306;8.608;2023-12-14T02:32:44;0.10;;;0.10;;
57461;SDS011;43308;47.306;8.608;2023-12-14T02:35:10;0.10;;;0.10;;
57461;SDS011;43308;47.306;8.608;2023-12-14T02:37:36;2.70;;;0.20;;
57461;SDS011;43308;47.306;8.608;2023-12-14T02:40:08;0.30;;;0.20;;
57461;SDS011;43308;47.306;8.608;2023-12-14T02:42:36;0.30;;;0.20;;
57461;SDS011;43308;47.306;8.608;2023-12-14T02:45:02;0.20;;;0.20;;
57461;SDS011;43308;47.306;8.608;2023-12-14T02:47:29;0.35;;;0.20;;
57461;SDS011;43308;47.306;8.608;2023-12-14T02:49:55;0.82;;;0.20;;
57461;SDS011;43308;47.306;8.608;2023-12-14T02:52:21;1.10;;;0.30;;
57461;SDS011;43308;47.306;8.608;2023-12-14T02:54:47;0.20;;;0.17;;
57461;SDS011;43308;47.306;8.608;2023-12-14T02:57:13;0.25;;;0.25;;
57461;SDS011;43308;47.306;8.608;2023-12-14T02:59:39;0.30;;;0.30;;
57461;SDS011;43308;47.306;8.608;2023-12-14T03:02:05;0.10;;;0.10;;
57461;SDS011;43308;47.306;8.608;2023-12-14T03:04:31;0.30;;;0.20;;
57461;SDS011;43308;47.306;8.608;2023-12-14T03:06:57;0.40;;;0.40;;
57461;SDS011;43308;47.306;8.608;2023-12-14T03:09:28;0.47;;;0.47;;
57461;SDS011;43308;47.306;8.608;2023-12-14T03:11:54;0.30;;;0.30;;
57461;SDS011;43308;47.306;8.608;2023-12-14T03:14:20;0.40;;;0.40;;
57461;SDS011;43308;47.306;8.608;2023-12-14T03:16:46;0.50;;;0.30;;
57461;SDS011;43308;47.306;8.608;2023-12-14T03:19:13;0.55;;;0.30;;
57461;SDS011;43308;47.306;8.608;2023-12-14T03:21:39;0.50;;;0.40;;
57461;SDS011;43308;47.306;8.608;2023-12-14T03:24:05;0.28;;;0.28;;
57461;SDS011;43308;47.306;8.608;2023-12-14T03:26:30;0.50;;;0.40;;
57461;SDS011;43308;47.306;8.608;2023-12-14T03:28:56;0.25;;;0.20;;
57461;SDS011;43308;47.306;8.608;2023-12-14T03:31:25;0.20;;;0.20;;
57461;SDS011;43308;47.306;8.608;2023-12-14T03:33:51;0.20;;;0.20;;
57461;SDS011;43308;47.306;8.608;2023-12-14T03:36:16;0.43;;;0.40;;
57461;SDS011;43308;47.306;8.608;2023-12-14T03:38:42;1.05;;;0.20;;
57461;SDS011;43308;47.306;8.608;2023-12-14T03:41:08;0.30;;;0.20;;
57461;SDS011;43308;47.306;8.608;2023-12-14T03:43:34;0.45;;;0.32;;
57461;SDS011;43308;47.306;8.608;2023-12-14T03:45:59;0.63;;;0.30;;
57461;SDS011;43308;47.306;8.608;2023-12-14T03:48:25;0.30;;;0.20;;
57461;SDS011;43308;47.306;8.608;2023-12-14T03:50:51;0.15;;;0.15;;
57461;SDS011;43308;47.306;8.608;2023-12-14T03:53:17;0.20;;;0.20;;
57461;SDS011;43308;47.306;8.608;2023-12-14T03:55:42;0.55;;;0.20;;
57461;SDS011;43308;47.306;8.608;2023-12-14T03:58:08;0.30;;;0.17;;
57461;SDS011;43308;47.306;8.608;2023-12-14T04:00:34;0.22;;;0.22;;
57461;SDS011;43308;47.306;8.608;2023-12-14T04:03:00;0.30;;;0.25;;
57461;SDS011;43308;47.306;8.608;2023-12-14T04:05:25;0.50;;;0.40;;
57461;SDS011;43308;47.306;8.608;2023-12-14T04:07:51;0.20;;;0.20;;
57461;SDS011;43308;47.306;8.608;2023-12-14T04:10:18;0.50;;;0.20;;
57461;SDS011;43308;47.306;8.608;2023-12-14T04:12:44;0.50;;;0.38;;
57461;SDS011;43308;47.306;8.608;2023-12-14T04:15:10;0.40;;;0.32;;
57461;SDS011;43308;47.306;8.608;2023-12-14T04:17:36;0.40;;;0.30;;
57461;SDS011;43308;47.306;8.608;2023-12-14T04:20:02;0.60;;;0.50;;
57461;SDS011;43308;47.306;8.608;2023-12-14T04:22:28;0.30;;;0.30;;
57461;SDS011;43308;47.306;8.608;2023-12-14T04:24:54;0.38;;;0.28;;
57461;SDS011;43308;47.306;8.608;2023-12-14T04:27:20;0.45;;;0.35;;
57461;SDS011;43308;47.306;8.608;2023-12-14T04:29:46;0.82;;;0.60;;
57461;SDS011;43308;47.306;8.608;2023-12-14T04:32:12;1.05;;;0.60;;
57461;SDS011;43308;47.306;8.608;2023-12-14T04:34:37;0.90;;;0.90;;
57461;SDS011;43308;47.306;8.608;2023-12-14T04:37:03;0.93;;;0.73;;
57461;SDS011;43308;47.306;8.608;2023-12-14T04:39:29;0.60;;;0.57;;
57461;SDS011;43308;47.306;8.608;2023-12-14T04:41:56;0.57;;;0.57;;
57461;SDS011;43308;47.306;8.608;2023-12-14T04:44:22;1.10;;;0.95;;
57461;SDS011;43308;47.306;8.608;2023-12-14T04:46:48;0.98;;;0.90;;
57461;SDS011;43308;47.306;8.608;2023-12-14T04:49:14;1.33;;;0.90;;
57461;SDS011;43308;47.306;8.608;2023-12-14T04:51:40;0.60;;;0.60;;
57461;SDS011;43308;47.306;8.608;2023-12-14T04:54:06;0.80;;;0.80;;
57461;SDS011;43308;47.306;8.608;2023-12-14T04:56:32;0.95;;;0.90;;
57461;SDS011;43308;47.306;8.608;2023-12-14T04:58:57;0.85;;;0.85;;
57461;SDS011;43308;47.306;8.608;2023-12-14T05:01:24;2.15;;;0.95;;
57461;SDS011;43308;47.306;8.608;2023-12-14T05:03:52;1.50;;;1.20;;
57461;SDS011;43308;47.306;8.608;2023-12-14T05:06:18;1.23;;;1.13;;
57461;SDS011;43308;47.306;8.608;2023-12-14T05:08:44;0.77;;;0.77;;
57461;SDS011;43308;47.306;8.608;2023-12-14T05:11:12;0.98;;;0.98;;
57461;SDS011;43308;47.306;8.608;2023-12-14T05:13:39;1.02;;;0.82;;
57461;SDS011;43308;47.306;8.608;2023-12-14T05:16:05;0.60;;;0.60;;
57461;SDS011;43308;47.306;8.608;2023-12-14T05:18:31;0.90;;;0.90;;
57461;SDS011;43308;47.306;8.608;2023-12-14T05:20:56;0.70;;;0.70;;
57461;SDS011;43308;47.306;8.608;2023-12-14T05:23:22;1.23;;;0.88;;
57461;SDS011;43308;47.306;8.608;2023-12-14T05:25:49;1.00;;;0.98;;
57461;SDS011;43308;47.306;8.608;2023-12-14T05:28:15;1.42;;;1.33;;
57461;SDS011;43308;47.306;8.608;2023-12-14T05:30:41;0.85;;;0.80;;
57461;SDS011;43308;47.306;8.608;2023-12-14T05:33:07;1.35;;;0.77;;
57461;SDS011;43308;47.306;8.608;2023-12-14T05:35:33;0.93;;;0.75;;
57461;SDS011;43308;47.306;8.608;2023-12-14T05:37:58;1.20;;;0.90;;
57461;SDS011;43308;47.306;8.608;2023-12-14T05:40:24;1.33;;;0.80;;
57461;SDS011;43308;47.306;8.608;2023-12-14T05:42:54;1.80;;;0.60;;
57461;SDS011;43308;47.306;8.608;2023-12-14T05:45:20;1.05;;;0.95;;
57461;SDS011;43308;47.306;8.608;2023-12-14T05:47:47;0.90;;;0.90;;
57461;SDS011;43308;47.306;8.608;2023-12-14T05:50:13;0.95;;;0.95;;
57461;SDS011;43308;47.306;8.608;2023-12-14T05:52:39;1.15;;;1.05;;
57461;SDS011;43308;47.306;8.608;2023-12-14T05:55:11;1.02;;;1.00;;
57461;SDS011;43308;47.306;8.608;2023-12-14T05:57:37;1.15;;;1.10;;
57461;SDS011;43308;47.306;8.608;2023-12-14T06:00:04;1.02;;;1.00;;
57461;SDS011;43308;47.306;8.608;2023-12-14T06:02:31;0.80;;;0.80;;
57461;SDS011;43308;47.306;8.608;2023-12-14T06:04:57;1.60;;;1.27;;
57461;SDS011;43308;47.306;8.608;2023-12-14T06:07:24;1.30;;;1.15;;
57461;SDS011;43308;47.306;8.608;2023-12-14T06:09:50;1.42;;;1.33;;
57461;SDS011;43308;47.306;8.608;2023-12-14T06:12:16;2.13;;;1.92;;
57461;SDS011;43308;47.306;8.608;2023-12-14T06:14:41;1.70;;;1.60;;
57461;SDS011;43308;47.306;8.608;2023-12-14T06:17:07;2.15;;;1.50;;
57461;SDS011;43308;47.306;8.608;2023-12-14T06:19:33;2.33;;;2.13;;
57461;SDS011;43308;47.306;8.608;2023-12-14T06:21:58;3.63;;;2.30;;
57461;SDS011;43308;47.306;8.608;2023-12-14T06:24:24;2.20;;;1.73;;
57461;SDS011;43308;47.306;8.608;2023-12-14T06:26:50;2.25;;;2.05;;
57461;SDS011;43308;47.306;8.608;2023-12-14T06:29:16;2.22;;;2.13;;
57461;SDS011;43308;47.306;8.608;2023-12-14T06:31:41;1.77;;;1.67;;
57461;SDS011;43308;47.306;8.608;2023-12-14T06:34:07;3.03;;;2.83;;
57461;SDS011;43308;47.306;8.608;2023-12-14T06:36:34;2.42;;;2.22;;
57461;SDS011;43308;47.306;8.608;2023-12-14T06:39:00;2.97;;;2.75;;
57461;SDS011;43308;47.306;8.608;2023-12-14T06:41:27;3.15;;;2.05;;
57461;SDS011;43308;47.306;8.608;2023-12-14T06:43:53;2.92;;;2.50;;
57461;SDS011;43308;47.306;8.608;2023-12-14T06:46:20;2.17;;;2.03;;
57461;SDS011;43308;47.306;8.608;2023-12-14T06:48:46;2.25;;;2.00;;
57461;SDS011;43308;47.306;8.608;2023-12-14T06:51:13;2.38;;;2.17;;
57461;SDS011;43308;47.306;8.608;2023-12-14T06:53:41;2.85;;;2.65;;
57461;SDS011;43308;47.306;8.608;2023-12-14T06:56:08;2.20;;;2.00;;
57461;SDS011;43308;47.306;8.608;2023-12-14T06:58:42;3.10;;;1.80;;
57461;SDS011;43308;47.306;8.608;2023-12-14T07:01:16;2.10;;;2.00;;
57461;SDS011;43308;47.306;8.608;2023-12-14T07:03:43;1.70;;;1.60;;
57461;SDS011;43308;47.306;8.608;2023-12-14T07:06:13;1.88;;;1.77;;
57461;SDS011;43308;47.306;8.608;2023-12-14T07:08:40;1.90;;;1.80;;
57461;SDS011;43308;47.306;8.608;2023-12-14T07:11:10;2.05;;;1.85;;
57461;SDS011;43308;47.306;8.608;2023-12-14T07:13:37;1.55;;;1.45;;
57461;SDS011;43308;47.306;8.608;2023-12-14T07:16:06;1.75;;;1.60;;
57461;SDS011;43308;47.306;8.608;2023-12-14T07:18:34;1.83;;;1.67;;
57461;SDS011;43308;47.306;8.608;2023-12-14T07:21:04;1.90;;;1.80;;
57461;SDS011;43308;47.306;8.608;2023-12-14T07:23:31;1.55;;;1.38;;
57461;SDS011;43308;47.306;8.608;2023-12-14T07:25:56;2.08;;;1.65;;
57461;SDS011;43308;47.306;8.608;2023-12-14T07:28:22;1.92;;;1.75;;
57461;SDS011;43308;47.306;8.608;2023-12-14T07:30:51;1.42;;;1.33;;
57461;SDS011;43308;47.306;8.608;2023-12-14T07:33:18;2.53;;;1.83;;
57461;SDS011;43308;47.306;8.608;2023-12-14T07:35:45;2.38;;;2.10;;
57461;SDS011;43308;47.306;8.608;2023-12-14T07:38:10;1.70;;;1.60;;
57461;SDS011;43308;47.306;8.608;2023-12-14T07:40:36;2.03;;;1.83;;
57461;SDS011;43308;47.306;8.608;2023-12-14T07:43:04;1.83;;;1.73;;
57461;SDS011;43308;47.306;8.608;2023-12-14T07:45:30;1.77;;;1.67;;
57461;SDS011;43308;47.306;8.608;2023-12-14T07:47:57;2.13;;;1.80;;
57461;SDS011;43308;47.306;8.608;2023-12-14T07:50:25;2.00;;;1.70;;
57461;SDS011;43308;47.306;8.608;2023-12-14T07:52:51;3.05;;;1.90;;
57461;SDS011;43308;47.306;8.608;2023-12-14T07:55:18;1.92;;;1.50;;
57461;SDS011;43308;47.306;8.608;2023-12-14T07:57:44;2.00;;;1.90;;
57461;SDS011;43308;47.306;8.608;2023-12-14T08:00:10;2.40;;;1.52;;
57461;SDS011;43308;47.306;8.608;2023-12-14T08:02:36;3.53;;;1.75;;
57461;SDS011;43308;47.306;8.608;2023-12-14T08:05:02;1.45;;;1.35;;
57461;SDS011;43308;47.306;8.608;2023-12-14T08:07:28;1.35;;;1.25;;
57461;SDS011;43308;47.306;8.608;2023-12-14T08:09:54;1.42;;;1.33;;
57461;SDS011;43308;47.306;8.608;2023-12-14T08:12:22;1.23;;;1.13;;
57461;SDS011;43308;47.306;8.608;2023-12-14T08:14:48;2.08;;;1.58;;
57461;SDS011;43308;47.306;8.608;2023-12-14T08:17:14;1.35;;;1.25;;
57461;SDS011;43308;47.306;8.608;2023-12-14T08:19:40;1.90;;;1.40;;
57461;SDS011;43308;47.306;8.608;2023-12-14T08:22:05;1.90;;;1.70;;
57461;SDS011;43308;47.306;8.608;2023-12-14T08:24:32;1.40;;;1.30;;
57461;SDS011;43308;47.306;8.608;2023-12-14T08:26:58;1.92;;;1.27;;
57461;SDS011;43308;47.306;8.608;2023-12-14T08:29:24;3.38;;;1.60;;
57461;SDS011;43308;47.306;8.608;2023-12-14T08:31:50;0.98;;;0.90;;
57461;SDS011;43308;47.306;8.608;2023-12-14T08:34:16;2.40;;;1.20;;
57461;SDS011;43308;47.306;8.608;2023-12-14T08:36:41;1.50;;;1.38;;
57461;SDS011;43308;47.306;8.608;2023-12-14T08:39:07;1.30;;;1.10;;
57461;SDS011;43308;47.306;8.608;2023-12-14T08:41:33;1.30;;;1.20;;
57461;SDS011;43308;47.306;8.608;2023-12-14T08:43:58;1.20;;;1.20;;
57461;SDS011;43308;47.306;8.608;2023-12-14T08:46:24;1.60;;;1.50;;
57461;SDS011;43308;47.306;8.608;2023-12-14T08:48:50;0.95;;;0.85;;
57461;SDS011;43308;47.306;8.608;2023-12-14T08:51:15;2.00;;;1.20;;
57461;SDS011;43308;47.306;8.608;2023-12-14T08:53:43;2.78;;;1.27;;
57461;SDS011;43308;47.306;8.608;2023-12-14T08:56:09;1.27;;;1.17;;
57461;SDS011;43308;47.306;8.608;2023-12-14T08:58:35;1.70;;;1.05;;
57461;SDS011;43308;47.306;8.608;2023-12-14T09:01:01;1.20;;;1.10;;
57461;SDS011;43308;47.306;8.608;2023-12-14T09:03:27;1.40;;;1.05;;
57461;SDS011;43308;47.306;8.608;2023-12-14T09:05:52;1.45;;;1.27;;
57461;SDS011;43308;47.306;8.608;2023-12-14T09:08:18;2.17;;;1.00;;
57461;SDS011;43308;47.306;8.608;2023-12-14T09:10:44;1.30;;;1.20;;
57461;SDS011;43308;47.306;8.608;2023-12-14T09:13:10;0.90;;;0.90;;
57461;SDS011;43308;47.306;8.608;2023-12-14T09:15:35;1.67;;;1.40;;
57461;SDS011;43308;47.306;8.608;2023-12-14T09:18:02;0.98;;;0.98;;
57461;SDS011;43308;47.306;8.608;2023-12-14T09:20:28;1.50;;;1.20;;
57461;SDS011;43308;47.306;8.608;2023-12-14T09:22:53;1.02;;;1.00;;
57461;SDS011;43308;47.306;8.608;2023-12-14T09:25:19;1.00;;;1.00;;
57461;SDS011;43308;47.306;8.608;2023-12-14T09:27:46;1.10;;;0.85;;
57461;SDS011;43308;47.306;8.608;2023-12-14T09:30:12;1.45;;;1.35;;
57461;SDS011;43308;47.306;8.608;2023-12-14T09:32:38;1.40;;;0.70;;
57461;SDS011;43308;47.306;8.608;2023-12-14T09:35:05;2.28;;;1.05;;
57461;SDS011;43308;47.306;8.608;2023-12-14T09:37:31;1.33;;;0.73;;
57461;SDS011;43308;47.306;8.608;2023-12-14T09:39:57;1.00;;;0.90;;
57461;SDS011;43308;47.306;8.608;2023-12-14T09:42:23;0.70;;;0.60;;
57461;SDS011;43308;47.306;8.608;2023-12-14T09:44:50;1.30;;;0.60;;
57461;SDS011;43308;47.306;8.608;2023-12-14T09:47:16;2.65;;;1.50;;
57461;SDS011;43308;47.306;8.608;2023-12-14T09:49:42;1.70;;;0.75;;
57461;SDS011;43308;47.306;8.608;2023-12-14T09:52:11;0.95;;;0.70;;
57461;SDS011;43308;47.306;8.608;2023-12-14T09:54:37;0.60;;;0.60;;
57461;SDS011;43308;47.306;8.608;2023-12-14T09:57:05;0.65;;;0.63;;
57461;SDS011;43308;47.306;8.608;2023-12-14T09:59:31;1.67;;;0.68;;
57461;SDS011;43308;47.306;8.608;2023-12-14T10:02:19;1.05;;;0.73;;
57461;SDS011;43308;47.306;8.608;2023-12-14T10:04:46;0.45;;;0.45;;
57461;SDS011;43308;47.306;8.608;2023-12-14T10:07:12;1.20;;;0.80;;
57461;SDS011;43308;47.306;8.608;2023-12-14T10:09:38;1.38;;;1.13;;
57461;SDS011;43308;47.306;8.608;2023-12-14T10:12:04;1.25;;;0.73;;
57461;SDS011;43308;47.306;8.608;2023-12-14T10:14:32;1.05;;;0.93;;
57461;SDS011;43308;47.306;8.608;2023-12-14T10:16:58;0.88;;;0.85;;
57461;SDS011;43308;47.306;8.608;2023-12-14T10:19:41;1.70;;;1.10;;
57461;SDS011;43308;47.306;8.608;2023-12-14T10:22:08;1.15;;;0.93;;
57461;SDS011;43308;47.306;8.608;2023-12-14T10:24:33;0.82;;;0.65;;
57461;SDS011;43308;47.306;8.608;2023-12-14T10:27:04;1.27;;;1.17;;
57461;SDS011;43308;47.306;8.608;2023-12-14T10:29:32;0.80;;;0.80;;
57461;SDS011;43308;47.306;8.608;2023-12-14T10:32:01;0.85;;;0.85;;
57461;SDS011;43308;47.306;8.608;2023-12-14T10:34:35;1.05;;;0.80;;
57461;SDS011;43308;47.306;8.608;2023-12-14T10:37:01;0.70;;;0.70;;
57461;SDS011;43308;47.306;8.608;2023-12-14T10:39:29;2.00;;;0.75;;
57461;SDS011;43308;47.306;8.608;2023-12-14T10:41:56;0.88;;;0.88;;
57461;SDS011;43308;47.306;8.608;2023-12-14T10:44:25;0.55;;;0.55;;
57461;SDS011;43308;47.306;8.608;2023-12-14T10:46:57;1.00;;;0.70;;
57461;SDS011;43308;47.306;8.608;2023-12-14T10:49:24;1.13;;;1.02;;
57461;SDS011;43308;47.306;8.608;2023-12-14T10:51:54;1.50;;;1.00;;
57461;SDS011;43308;47.306;8.608;2023-12-14T10:54:23;3.50;;;0.70;;
57461;SDS011;43308;47.306;8.608;2023-12-14T10:56:54;1.10;;;1.00;;
57461;SDS011;43308;47.306;8.608;2023-12-14T10:59:21;1.17;;;1.05;;
57461;SDS011;43308;47.306;8.608;2023-12-14T11:01:52;1.17;;;1.08;;
57461;SDS011;43308;47.306;8.608;2023-12-14T11:04:20;1.17;;;1.02;;
57461;SDS011;43308;47.306;8.608;2023-12-14T11:06:48;1.92;;;0.90;;
57461;SDS011;43308;47.306;8.608;2023-12-14T11:09:16;2.30;;;1.27;;
57461;SDS011;43308;47.306;8.608;2023-12-14T11:14:19;1.33;;;1.23;;
57461;SDS011;43308;47.306;8.608;2023-12-14T11:16:50;1.40;;;1.10;;
57461;SDS011;43308;47.306;8.608;2023-12-14T11:21:48;1.17;;;1.08;;
57461;SDS011;43308;47.306;8.608;2023-12-14T11:24:23;1.17;;;1.08;;
57461;SDS011;43308;47.306;8.608;2023-12-14T11:26:51;1.75;;;1.35;;
57461;SDS011;43308;47.306;8.608;2023-12-14T11:29:17;1.05;;;0.90;;
57461;SDS011;43308;47.306;8.608;2023-12-14T11:31:44;1.52;;;1.40;;
57461;SDS011;43308;47.306;8.608;2023-12-14T11:34:11;1.40;;;1.30;;
57461;SDS011;43308;47.306;8.608;2023-12-14T11:36:37;1.33;;;1.23;;
57461;SDS011;43308;47.306;8.608;2023-12-14T11:39:10;1.77;;;1.40;;
57461;SDS011;43308;47.306;8.608;2023-12-14T11:41:36;1.25;;;1.15;;
57461;SDS011;43308;47.306;8.608;2023-12-14T11:44:04;1.20;;;1.05;;
57461;SDS011;43308;47.306;8.608;2023-12-14T11:46:30;1.42;;;1.33;;
57461;SDS011;43308;47.306;8.608;2023-12-14T11:48:57;2.30;;;1.30;;
57461;SDS011;43308;47.306;8.608;2023-12-14T11:51:23;2.10;;;1.45;;
57461;SDS011;43308;47.306;8.608;2023-12-14T11:53:51;2.03;;;1.35;;
57461;SDS011;43308;47.306;8.608;2023-12-14T11:56:17;1.35;;;1.05;;
57461;SDS011;43308;47.306;8.608;2023-12-14T11:58:44;1.60;;;1.50;;
57461;SDS011;43308;47.306;8.608;2023-12-14T12:01:19;1.45;;;1.10;;
57461;SDS011;43308;47.306;8.608;2023-12-14T12:03:51;1.30;;;1.20;;
57461;SDS011;43308;47.306;8.608;2023-12-14T12:06:26;2.08;;;1.70;;
57461;SDS011;43308;47.306;8.608;2023-12-14T12:08:58;1.48;;;1.38;;
57461;SDS011;43308;47.306;8.608;2023-12-14T12:11:24;2.55;;;1.52;;
57461;SDS011;43308;47.306;8.608;2023-12-14T12:13:53;2.22;;;2.03;;
57461;SDS011;43308;47.306;8.608;2023-12-14T12:16:20;2.08;;;1.38;;
57461;SDS011;43308;47.306;8.608;2023-12-14T12:18:48;1.95;;;1.75;;
57461;SDS011;43308;47.306;8.608;2023-12-14T12:21:13;1.45;;;1.30;;
57461;SDS011;43308;47.306;8.608;2023-12-14T12:23:39;1.60;;;1.50;;
57461;SDS011;43308;47.306;8.608;2023-12-14T12:26:07;1.65;;;1.10;;
57461;SDS011;43308;47.306;8.608;2023-12-14T12:28:33;1.50;;;1.40;;
57461;SDS011;43308;47.306;8.608;2023-12-14T12:30:59;1.65;;;1.50;;
57461;SDS011;43308;47.306;8.608;2023-12-14T12:33:25;2.22;;;1.52;;
57461;SDS011;43308;47.306;8.608;2023-12-14T12:35:51;2.35;;;1.55;;
57461;SDS011;43308;47.306;8.608;2023-12-14T12:38:17;1.88;;;1.48;;
57461;SDS011;43308;47.306;8.608;2023-12-14T12:40:44;2.85;;;2.10;;
57461;SDS011;43308;47.306;8.608;2023-12-14T12:43:10;1.48;;;1.30;;
57461;SDS011;43308;47.306;8.608;2023-12-14T12:45:37;1.75;;;1.30;;
57461;SDS011;43308;47.306;8.608;2023-12-14T12:48:03;2.33;;;1.20;;
57461;SDS011;43308;47.306;8.608;2023-12-14T12:50:29;2.10;;;1.58;;
57461;SDS011;43308;47.306;8.608;2023-12-14T12:52:55;1.52;;;1.27;;
57461;SDS011;43308;47.306;8.608;2023-12-14T12:55:21;2.25;;;1.17;;
57461;SDS011;43308;47.306;8.608;2023-12-14T12:57:48;1.00;;;0.80;;
57461;SDS011;43308;47.306;8.608;2023-12-14T13:00:14;1.20;;;1.10;;
57461;SDS011;43308;47.306;8.608;2023-12-14T13:02:40;1.00;;;0.90;;
57461;SDS011;43308;47.306;8.608;2023-12-14T13:05:07;2.25;;;1.80;;
57461;SDS011;43308;47.306;8.608;2023-12-14T13:07:34;1.50;;;1.40;;
57461;SDS011;43308;47.306;8.608;2023-12-14T13:10:00;1.70;;;1.17;;
57461;SDS011;43308;47.306;8.608;2023-12-14T13:12:26;2.47;;;1.50;;
57461;SDS011;43308;47.306;8.608;2023-12-14T13:14:52;1.30;;;1.20;;
57461;SDS011;43308;47.306;8.608;2023-12-14T13:17:17;2.25;;;1.48;;
57461;SDS011;43308;47.306;8.608;2023-12-14T13:19:44;3.72;;;2.67;;
57461;SDS011;43308;47.306;8.608;2023-12-14T13:22:10;6.55;;;3.95;;
57461;SDS011;43308;47.306;8.608;2023-12-14T13:24:39;2.67;;;2.08;;
57461;SDS011;43308;47.306;8.608;2023-12-14T13:27:05;2.42;;;1.90;;
57461;SDS011;43308;47.306;8.608;2023-12-14T13:29:31;1.40;;;1.30;;
57461;SDS011;43308;47.306;8.608;2023-12-14T13:31:58;2.60;;;1.70;;
57461;SDS011;43308;47.306;8.608;2023-12-14T13:34:25;2.38;;;1.60;;
57461;SDS011;43308;47.306;8.608;2023-12-14T13:36:52;1.13;;;1.00;;
57461;SDS011;43308;47.306;8.608;2023-12-14T13:39:17;1.00;;;0.90;;
57461;SDS011;43308;47.306;8.608;2023-12-14T13:41:43;2.00;;;0.90;;
57461;SDS011;43308;47.306;8.608;2023-12-14T13:44:09;1.13;;;1.02;;
57461;SDS011;43308;47.306;8.608;2023-12-14T13:46:34;0.80;;;0.77;;
57461;SDS011;43308;47.306;8.608;2023-12-14T13:49:00;2.60;;;0.93;;
57461;SDS011;43308;47.306;8.608;2023-12-14T13:51:27;0.80;;;0.80;;
57461;SDS011;43308;47.306;8.608;2023-12-14T13:53:53;0.85;;;0.85;;
57461;SDS011;43308;47.306;8.608;2023-12-14T13:56:19;1.10;;;1.00;;
57461;SDS011;43308;47.306;8.608;2023-12-14T13:58:45;1.38;;;0.77;;
57461;SDS011;43308;47.306;8.608;2023-12-14T14:01:11;1.85;;;1.17;;
57461;SDS011;43308;47.306;8.608;2023-12-14T14:03:37;1.83;;;0.90;;
57461;SDS011;43308;47.306;8.608;2023-12-14T14:06:04;1.33;;;0.90;;
57461;SDS011;43308;47.306;8.608;2023-12-14T14:08:30;0.93;;;0.75;;
57461;SDS011;43308;47.306;8.608;2023-12-14T14:10:59;1.58;;;0.82;;
57461;SDS011;43308;47.306;8.608;2023-12-14T14:13:25;1.20;;;0.80;;
57461;SDS011;43308;47.306;8.608;2023-12-14T14:15:51;0.75;;;0.70;;
57461;SDS011;43308;47.306;8.608;2023-12-14T14:18:17;4.00;;;0.90;;
57461;SDS011;43308;47.306;8.608;2023-12-14T14:20:43;1.00;;;1.00;;
57461;SDS011;43308;47.306;8.608;2023-12-14T14:23:09;1.25;;;0.85;;
57461;SDS011;43308;47.306;8.608;2023-12-14T14:25:35;1.27;;;1.10;;
57461;SDS011;43308;47.306;8.608;2023-12-14T14:28:00;0.73;;;0.60;;
57461;SDS011;43308;47.306;8.608;2023-12-14T14:30:26;1.25;;;0.90;;
57461;SDS011;43308;47.306;8.608;2023-12-14T14:32:52;1.60;;;0.82;;
57461;SDS011;43308;47.306;8.608;2023-12-14T14:35:18;1.05;;;0.98;;
57461;SDS011;43308;47.306;8.608;2023-12-14T14:37:44;0.70;;;0.70;;
57461;SDS011;43308;47.306;8.608;2023-12-14T14:40:13;1.40;;;0.80;;
57461;SDS011;43308;47.306;8.608;2023-12-14T14:42:39;0.88;;;0.88;;
57461;SDS011;43308;47.306;8.608;2023-12-14T14:45:06;2.25;;;0.82;;
57461;SDS011;43308;47.306;8.608;2023-12-14T14:47:33;1.75;;;0.93;;
57461;SDS011;43308;47.306;8.608;2023-12-14T14:50:00;0.75;;;0.70;;
57461;SDS011;43308;47.306;8.608;2023-12-14T14:52:32;1.58;;;1.13;;